Time;durP1;ratioP1;P1;durP2;ratioP2;P2;SDS_P1;SDS_P2;PMS_P1;PMS_P2;Temp;Humidity;BMP_temperature;BMP_pressure;BME280_temperature;BME280_humidity;BME280_pressure;Samples;Min_cycle;Max_cycle;Signal;HPM_P1;HPM_P2
2023/06/12 00:01:55;;;;;;;4.72;4.35;;;23.30;71.40;;;;;;4985339;28;20321;-71
2023/06/12 00:04:21;;;;;;;6.07;4.13;;;23.30;71.10;;;;;;4984978;28;20735;-70
2023/06/12 00:06:50;;;;;;;4.53;3.90;;;23.30;71.00;;;;;;4985239;28;20576;-70
2023/06/12 00:09:17;;;;;;;5.60;4.50;;;23.30;70.80;;;;;;4985611;28;20272;-70
2023/06/12 00:11:44;;;;;;;4.20;3.60;;;23.20;70.30;;;;;;4985341;28;20301;-70
2023/06/12 00:14:11;;;;;;;5.13;4.15;;;23.20;70.00;;;;;;4985690;28;20238;-70
2023/06/12 00:16:39;;;;;;;5.80;4.38;;;23.20;69.90;;;;;;4985811;28;20290;-70
2023/06/12 00:19:06;;;;;;;4.97;3.67;;;23.20;69.90;;;;;;4996805;28;20215;-70
2023/06/12 00:21:33;;;;;;;4.68;4.28;;;23.20;69.70;;;;;;4985394;28;20237;-70
2023/06/12 00:24:00;;;;;;;5.10;4.30;;;23.20;69.50;;;;;;4985070;28;20776;-71
2023/06/12 00:26:27;;;;;;;5.50;4.25;;;23.20;69.50;;;;;;5003489;28;20661;-71
2023/06/12 00:28:54;;;;;;;3.97;3.70;;;23.10;69.60;;;;;;4987150;28;20272;-71
2023/06/12 00:31:21;;;;;;;4.13;3.83;;;23.10;70.00;;;;;;4985072;28;20205;-70
2023/06/12 00:33:52;;;;;;;6.65;4.38;;;23.00;70.00;;;;;;4985020;28;20305;-70
2023/06/12 00:36:19;;;;;;;5.53;4.60;;;23.00;70.20;;;;;;4985037;28;20685;-70
2023/06/12 00:38:46;;;;;;;4.05;3.72;;;23.00;70.40;;;;;;4985479;28;20294;-70
2023/06/12 00:41:12;;;;;;;4.13;3.83;;;22.90;70.60;;;;;;4984657;28;20313;-70
2023/06/12 00:43:40;;;;;;;4.43;4.05;;;22.80;70.90;;;;;;4985192;28;20293;-70
2023/06/12 00:46:07;;;;;;;4.90;4.05;;;22.80;71.20;;;;;;4984837;28;20206;-70
2023/06/12 00:48:34;;;;;;;4.45;4.07;;;22.60;71.00;;;;;;4985024;28;20238;-70
2023/06/12 00:51:02;;;;;;;5.28;4.18;;;22.50;71.00;;;;;;4984853;28;20660;-70
2023/06/12 00:53:29;;;;;;;4.45;3.95;;;22.50;70.90;;;;;;4974452;28;20269;-69
2023/06/12 00:55:57;;;;;;;5.05;4.25;;;22.60;70.40;;;;;;4992953;28;20207;-69
2023/06/12 00:58:24;;;;;;;4.55;4.15;;;22.60;70.30;;;;;;4988519;28;20210;-70
2023/06/12 01:00:54;;;;;;;4.45;4.05;;;22.50;70.60;;;;;;4988326;28;20252;-70
2023/06/12 01:03:24;;;;;;;4.65;4.25;;;22.50;71.00;;;;;;4988658;28;20551;-70
2023/06/12 01:05:52;;;;;;;4.63;4.10;;;22.50;70.90;;;;;;4988641;28;20195;-70
2023/06/12 01:08:28;;;;;;;4.65;4.20;;;22.50;70.90;;;;;;4988295;28;20222;-70
2023/06/12 01:10:58;;;;;;;8.48;4.03;;;22.40;71.00;;;;;;4988212;28;20843;-70
2023/06/12 01:13:25;;;;;;;4.30;4.00;;;22.30;71.00;;;;;;4988156;28;20678;-70
2023/06/12 01:15:52;;;;;;;5.38;4.13;;;22.30;71.00;;;;;;4988170;28;20217;-71
2023/06/12 01:18:20;;;;;;;5.30;3.92;;;22.30;70.90;;;;;;4988239;28;20276;-71
2023/06/12 01:20:48;;;;;;;5.10;4.05;;;22.20;70.80;;;;;;4988160;28;20871;-70
2023/06/12 01:23:31;;;;;;;5.30;4.22;;;22.20;71.00;;;;;;4987855;28;20213;-71
2023/06/12 01:26:11;;;;;;;5.18;3.75;;;22.20;70.90;;;;;;5002615;28;20576;-71
2023/06/12 01:29:33;;;;;;;4.82;4.03;;;22.10;70.80;;;;;;5007239;28;20256;-71
2023/06/12 01:32:03;;;;;;;3.80;3.50;;;22.00;70.40;;;;;;4946723;29;20733;-70
2023/06/12 01:34:37;;;;;;;5.00;4.05;;;22.10;70.10;;;;;;4946698;29;20214;-71
2023/06/12 01:37:14;;;;;;;5.55;3.78;;;22.10;70.60;;;;;;4973978;28;20253;-71
2023/06/12 01:39:44;;;;;;;4.50;3.38;;;22.10;70.20;;;;;;4988134;28;20249;-70
2023/06/12 01:42:12;;;;;;;3.80;3.50;;;22.00;70.00;;;;;;4988075;28;20590;-70
2023/06/12 01:44:38;;;;;;;5.50;3.75;;;22.00;70.20;;;;;;4988211;28;20264;-71
2023/06/12 01:47:07;;;;;;;4.00;3.58;;;22.00;70.50;;;;;;4987958;28;20371;-71
2023/06/12 01:49:34;;;;;;;7.70;3.80;;;21.70;70.00;;;;;;4988108;28;20245;-71
2023/06/12 01:52:01;;;;;;;12.63;3.97;;;21.70;69.80;;;;;;4987744;28;20229;-70
2023/06/12 01:54:28;;;;;;;3.85;3.50;;;21.70;70.00;;;;;;4994392;28;20209;-71
2023/06/12 01:56:57;;;;;;;3.92;3.53;;;21.60;70.00;;;;;;4987302;28;20210;-70
2023/06/12 01:59:24;;;;;;;4.60;3.47;;;21.60;69.80;;;;;;4987361;28;20210;-70
2023/06/12 02:01:51;;;;;;;4.82;3.70;;;21.50;69.90;;;;;;4987364;28;20930;-70
2023/06/12 02:04:19;;;;;;;8.23;3.67;;;21.50;70.10;;;;;;4987519;28;20301;-70
2023/06/12 02:06:46;;;;;;;3.67;3.30;;;21.40;70.10;;;;;;4987168;28;20217;-70
2023/06/12 02:09:13;;;;;;;4.07;3.78;;;21.40;69.70;;;;;;4987103;28;20220;-70
2023/06/12 02:11:40;;;;;;;5.70;3.77;;;21.50;70.00;;;;;;5001987;28;20216;-71
2023/06/12 02:14:07;;;;;;;5.72;3.88;;;21.50;69.90;;;;;;5002189;28;20715;-70
2023/06/12 02:16:34;;;;;;;3.80;3.42;;;21.50;69.80;;;;;;4987224;28;20738;-71
2023/06/12 02:19:02;;;;;;;4.43;3.88;;;21.50;69.50;;;;;;4987618;28;20206;-70
2023/06/12 02:21:30;;;;;;;4.05;3.58;;;21.30;69.70;;;;;;4987032;28;20225;-70
2023/06/12 02:23:57;;;;;;;4.90;3.67;;;21.40;70.00;;;;;;4986686;28;20236;-70
2023/06/12 02:26:24;;;;;;;5.38;3.38;;;21.30;70.30;;;;;;4990225;28;20668;-70
2023/06/12 02:29:07;;;;;;;3.72;3.30;;;21.40;69.80;;;;;;4985084;28;20360;-71
2023/06/12 02:31:34;;;;;;;3.58;3.25;;;21.20;69.30;;;;;;4984909;28;20233;-71
2023/06/12 02:34:01;;;;;;;3.88;3.40;;;21.20;69.80;;;;;;4985082;28;20217;-71
2023/06/12 02:36:30;;;;;;;3.45;3.17;;;21.00;69.40;;;;;;4984718;28;20206;-71
2023/06/12 02:38:57;;;;;;;4.25;3.58;;;21.10;69.70;;;;;;4985354;28;20210;-70
2023/06/12 02:41:24;;;;;;;3.78;3.30;;;21.00;69.60;;;;;;4985159;28;20716;-70
2023/06/12 02:43:51;;;;;;;4.45;3.25;;;21.10;69.20;;;;;;4985364;28;20559;-71
2023/06/12 02:46:18;;;;;;;3.67;3.33;;;21.00;68.90;;;;;;4984507;28;20661;-71
2023/06/12 02:48:45;;;;;;;5.05;3.22;;;20.90;68.60;;;;;;4984903;28;20646;-70
2023/06/12 02:51:12;;;;;;;3.95;3.30;;;20.90;68.60;;;;;;4997754;28;20205;-70
2023/06/12 02:53:40;;;;;;;4.40;3.00;;;21.00;68.80;;;;;;4984629;28;20252;-70
2023/06/12 02:56:07;;;;;;;5.13;2.95;;;20.90;68.70;;;;;;4984777;28;20305;-70
2023/06/12 02:58:34;;;;;;;4.18;3.72;;;20.90;68.70;;;;;;4993818;28;20304;-70
2023/06/12 03:01:02;;;;;;;3.42;2.85;;;20.90;68.30;;;;;;5004282;28;20216;-71
2023/06/12 03:03:30;;;;;;;3.15;2.95;;;20.60;68.20;;;;;;4986841;28;20250;-69
2023/06/12 03:05:56;;;;;;;3.90;3.00;;;20.70;69.50;;;;;;4984917;28;20226;-69
2023/06/12 03:08:23;;;;;;;3.15;2.92;;;20.50;68.70;;;;;;4984139;28;20207;-69
2023/06/12 03:10:52;;;;;;;5.00;3.03;;;20.60;69.40;;;;;;4986314;28;20210;-69
2023/06/12 03:13:19;;;;;;;4.77;2.90;;;20.70;69.50;;;;;;4985656;28;20224;-69
2023/06/12 03:15:46;;;;;;;3.53;3.08;;;20.80;69.80;;;;;;4985092;28;20953;-69
2023/06/12 03:18:13;;;;;;;4.00;3.03;;;20.80;69.90;;;;;;4986100;28;20417;-69
2023/06/12 03:20:40;;;;;;;3.92;3.42;;;20.80;71.00;;;;;;4986482;28;20573;-69
2023/06/12 03:23:07;;;;;;;4.53;3.58;;;20.80;70.10;;;;;;4986055;28;20427;-69
2023/06/12 03:25:33;;;;;;;3.53;3.30;;;20.80;70.10;;;;;;4997021;28;20216;-69
2023/06/12 03:28:02;;;;;;;3.67;3.38;;;20.80;70.00;;;;;;5005541;28;20312;-69
2023/06/12 03:30:28;;;;;;;3.53;2.50;;;20.70;70.30;;;;;;5005721;28;20213;-69
2023/06/12 03:32:56;;;;;;;3.38;3.08;;;20.70;70.10;;;;;;5006014;28;20220;-69
2023/06/12 03:35:23;;;;;;;5.07;2.90;;;20.70;70.80;;;;;;5005591;28;20205;-69
2023/06/12 03:37:50;;;;;;;3.45;3.15;;;20.70;70.70;;;;;;5005522;28;20220;-69
2023/06/12 03:40:18;;;;;;;7.15;3.47;;;20.60;71.20;;;;;;5005597;28;20244;-69
2023/06/12 03:42:45;;;;;;;3.22;2.92;;;20.60;71.30;;;;;;5005522;28;20241;-70
2023/06/12 03:45:14;;;;;;;3.92;3.50;;;20.60;71.60;;;;;;4995797;28;20220;-70
2023/06/12 03:47:41;;;;;;;3.30;3.10;;;20.60;71.50;;;;;;4986524;28;20209;-69
2023/06/12 03:50:10;;;;;;;4.90;3.70;;;20.50;72.70;;;;;;4985776;28;20206;-69
2023/06/12 03:52:36;;;;;;;3.78;3.47;;;20.50;72.30;;;;;;4985386;28;20245;-69
2023/06/12 03:55:04;;;;;;;7.97;3.73;;;20.50;72.70;;;;;;4992781;28;20206;-69
2023/06/12 03:57:31;;;;;;;5.13;3.45;;;20.50;73.20;;;;;;5004521;28;20639;-69
2023/06/12 03:59:58;;;;;;;5.18;3.67;;;20.50;73.40;;;;;;4985468;28;20285;-69
2023/06/12 04:02:26;;;;;;;4.38;4.07;;;20.50;74.00;;;;;;4985702;28;20392;-69
2023/06/12 04:04:53;;;;;;;5.45;3.60;;;20.50;74.20;;;;;;4986168;28;20210;-70
2023/06/12 04:07:21;;;;;;;4.95;3.88;;;20.50;74.50;;;;;;4985494;28;20606;-69
2023/06/12 04:09:48;;;;;;;3.90;3.60;;;20.40;75.00;;;;;;4985730;28;20226;-69
2023/06/12 04:12:14;;;;;;;5.63;3.92;;;20.50;75.20;;;;;;4986274;28;20310;-69
2023/06/12 04:14:42;;;;;;;6.13;3.80;;;20.50;75.50;;;;;;4986243;28;20207;-69
2023/06/12 04:17:09;;;;;;;6.38;3.90;;;20.40;75.90;;;;;;4985963;28;20210;-69
2023/06/12 04:19:37;;;;;;;4.45;4.15;;;20.40;75.90;;;;;;4985887;28;20320;-69
2023/06/12 04:22:05;;;;;;;4.50;4.10;;;20.40;75.90;;;;;;4986065;28;20255;-69
2023/06/12 04:24:34;;;;;;;7.00;3.90;;;20.30;76.30;;;;;;4985459;28;20405;-69
2023/06/12 04:27:09;;;;;;;4.88;4.32;;;20.30;76.40;;;;;;4986361;28;20220;-69
2023/06/12 04:29:37;;;;;;;5.65;4.22;;;20.40;77.20;;;;;;4989240;28;20202;-69
2023/06/12 04:32:06;;;;;;;4.55;4.25;;;20.40;76.60;;;;;;4989270;28;20214;-70
2023/06/12 04:34:39;;;;;;;11.93;5.13;;;20.30;76.80;;;;;;4989147;28;20206;-69
2023/06/12 04:37:09;;;;;;;9.52;4.70;;;20.30;76.70;;;;;;4989258;28;20198;-69
2023/06/12 04:39:36;;;;;;;17.20;5.20;;;20.40;76.80;;;;;;4988929;28;20214;-69
2023/06/12 04:42:03;;;;;;;11.07;4.53;;;20.40;76.90;;;;;;4989124;28;20325;-69
2023/06/12 04:44:34;;;;;;;5.53;4.22;;;20.40;77.10;;;;;;4975313;28;20233;-69
2023/06/12 04:47:04;;;;;;;13.65;3.97;;;20.40;77.10;;;;;;4988908;28;20208;-69
2023/06/12 04:49:33;;;;;;;4.67;3.73;;;20.40;77.50;;;;;;4989241;28;20209;-69
2023/06/12 04:52:02;;;;;;;7.40;3.90;;;20.40;77.60;;;;;;4988718;28;20921;-69
2023/06/12 04:54:35;;;;;;;6.57;4.30;;;20.40;77.80;;;;;;4989107;28;20695;-69
2023/06/12 04:57:03;;;;;;;5.78;3.95;;;20.40;78.10;;;;;;4988997;28;20548;-69
2023/06/12 04:59:37;;;;;;;9.65;4.13;;;20.40;78.20;;;;;;4989031;28;20871;-69
2023/06/12 05:02:04;;;;;;;5.68;4.15;;;20.50;78.30;;;;;;4989164;28;20217;-69
2023/06/12 05:04:32;;;;;;;8.00;4.00;;;20.60;78.30;;;;;;4988930;28;20206;-69
2023/06/12 05:06:59;;;;;;;4.13;3.78;;;20.60;78.20;;;;;;4987872;28;20210;-69
2023/06/12 05:09:26;;;;;;;5.47;4.55;;;20.60;78.00;;;;;;4987777;28;20703;-69
2023/06/12 05:11:54;;;;;;;7.63;4.30;;;20.60;77.90;;;;;;4988456;28;20206;-70
2023/06/12 05:14:21;;;;;;;6.78;3.95;;;20.60;77.90;;;;;;4988235;28;20216;-69
2023/06/12 05:16:48;;;;;;;6.55;4.22;;;20.60;77.70;;;;;;4988107;28;20305;-69
2023/06/12 05:19:15;;;;;;;6.63;4.43;;;20.70;77.60;;;;;;4987863;28;20726;-69
2023/06/12 05:21:43;;;;;;;5.65;3.85;;;20.70;77.50;;;;;;4988474;28;20297;-69
2023/06/12 05:24:10;;;;;;;7.75;3.72;;;20.60;77.40;;;;;;4987423;28;20252;-69
2023/06/12 05:26:37;;;;;;;5.65;4.00;;;20.70;77.30;;;;;;4968623;28;20687;-69
2023/06/12 05:29:05;;;;;;;6.38;3.72;;;20.70;77.00;;;;;;4968789;28;20207;-69
2023/06/12 05:31:32;;;;;;;8.15;3.80;;;20.80;77.10;;;;;;4968383;28;20586;-69
2023/06/12 05:33:59;;;;;;;6.15;3.53;;;20.80;77.30;;;;;;4968626;28;20305;-69
2023/06/12 05:36:26;;;;;;;4.18;3.22;;;20.90;76.40;;;;;;4968811;28;20309;-69
2023/06/12 05:38:53;;;;;;;4.53;3.13;;;20.80;74.90;;;;;;4991250;28;20296;-69
2023/06/12 05:41:20;;;;;;;3.85;3.33;;;20.90;74.80;;;;;;4996694;28;20214;-69
2023/06/12 05:43:47;;;;;;;6.55;3.55;;;21.00;73.90;;;;;;4988055;28;20242;-69
2023/06/12 05:46:15;;;;;;;4.82;2.95;;;21.00;73.00;;;;;;4987938;28;20206;-69
2023/06/12 05:48:42;;;;;;;3.30;3.00;;;21.00;72.20;;;;;;4987888;28;20210;-69
2023/06/12 05:51:09;;;;;;;5.30;3.25;;;21.10;72.20;;;;;;4987548;28;20228;-69
2023/06/12 05:53:36;;;;;;;5.40;3.08;;;21.10;71.60;;;;;;4987347;28;20238;-69
2023/06/12 05:56:02;;;;;;;7.65;3.50;;;21.20;71.70;;;;;;4987535;28;20290;-70
2023/06/12 05:58:30;;;;;;;8.38;3.53;;;21.20;71.30;;;;;;4987340;28;20214;-69
2023/06/12 06:00:56;;;;;;;7.35;3.33;;;21.30;71.70;;;;;;4987570;28;20222;-69
2023/06/12 06:03:25;;;;;;;6.03;3.40;;;21.30;72.30;;;;;;4987707;28;20320;-69
2023/06/12 06:05:52;;;;;;;5.30;3.53;;;21.30;72.90;;;;;;4987772;28;20217;-70
2023/06/12 06:08:18;;;;;;;15.52;4.30;;;21.30;72.80;;;;;;4987453;28;20206;-69
2023/06/12 06:10:45;;;;;;;8.27;3.42;;;21.40;72.30;;;;;;4987774;28;20206;-69
2023/06/12 06:13:13;;;;;;;4.85;3.22;;;21.40;72.10;;;;;;4987828;28;20304;-69
2023/06/12 06:15:40;;;;;;;6.30;3.78;;;21.40;72.70;;;;;;4987378;28;20218;-69
2023/06/12 06:18:08;;;;;;;5.50;3.17;;;21.50;73.60;;;;;;4987276;28;20669;-69
2023/06/12 06:20:36;;;;;;;6.47;3.38;;;21.40;72.90;;;;;;4987224;28;20301;-69
2023/06/12 06:23:03;;;;;;;4.90;3.60;;;21.50;73.10;;;;;;4987505;28;20246;-69
2023/06/12 06:25:31;;;;;;;6.72;3.42;;;21.60;73.00;;;;;;4986826;28;20217;-69
2023/06/12 06:27:58;;;;;;;20.77;4.70;;;21.60;73.00;;;;;;4987407;28;20217;-70
2023/06/12 06:30:25;;;;;;;7.10;3.55;;;21.70;72.80;;;;;;4986668;28;20216;-69
2023/06/12 06:32:52;;;;;;;5.97;3.55;;;21.70;72.30;;;;;;4986348;28;20622;-69
2023/06/12 06:35:19;;;;;;;5.72;3.40;;;21.70;72.50;;;;;;4979785;28;20687;-69
2023/06/12 06:37:47;;;;;;;7.28;3.58;;;21.70;73.00;;;;;;4994636;28;20561;-69
2023/06/12 06:40:15;;;;;;;9.63;3.50;;;21.70;72.80;;;;;;4986708;28;20669;-69
2023/06/12 06:42:42;;;;;;;6.30;3.50;;;21.80;72.80;;;;;;4986940;28;20234;-70
2023/06/12 06:45:09;;;;;;;7.50;3.38;;;21.80;72.90;;;;;;4986733;28;20459;-69
2023/06/12 06:47:36;;;;;;;5.00;3.25;;;21.90;73.10;;;;;;4986833;28;20325;-69
2023/06/12 06:50:04;;;;;;;10.88;3.60;;;21.90;73.10;;;;;;4986305;28;20216;-69
2023/06/12 06:52:31;;;;;;;8.55;3.20;;;21.90;73.20;;;;;;4986474;28;20325;-69
2023/06/12 06:54:59;;;;;;;4.95;3.75;;;21.90;73.60;;;;;;4980215;28;20595;-69
2023/06/12 06:57:26;;;;;;;6.90;3.50;;;22.00;74.60;;;;;;4967447;28;20210;-69
2023/06/12 06:59:54;;;;;;;4.90;3.35;;;22.00;74.00;;;;;;4967019;28;20199;-69
2023/06/12 07:02:21;;;;;;;4.63;3.22;;;22.10;73.10;;;;;;4966740;28;20650;-69
2023/06/12 07:04:48;;;;;;;5.18;3.38;;;22.20;72.80;;;;;;4967129;28;20277;-69
2023/06/12 07:07:15;;;;;;;6.60;3.05;;;22.20;71.70;;;;;;4966928;28;20297;-69
2023/06/12 07:09:42;;;;;;;7.65;3.63;;;22.30;72.20;;;;;;4966837;28;20228;-69
2023/06/12 07:12:11;;;;;;;11.77;3.70;;;22.30;72.30;;;;;;4966697;28;20213;-69
2023/06/12 07:14:38;;;;;;;6.60;3.15;;;22.30;72.50;;;;;;4967177;28;20221;-69
2023/06/12 07:17:05;;;;;;;3.67;3.38;;;22.40;72.90;;;;;;4980352;28;20214;-70
2023/06/12 07:19:32;;;;;;;4.28;3.13;;;22.40;71.50;;;;;;4986562;28;20309;-69
2023/06/12 07:21:59;;;;;;;4.15;3.20;;;22.50;72.20;;;;;;4986618;28;20292;-69
2023/06/12 07:24:26;;;;;;;7.03;4.65;;;22.50;72.30;;;;;;4986218;28;20237;-69
2023/06/12 07:26:53;;;;;;;5.13;3.53;;;22.60;72.30;;;;;;4986923;28;20297;-69
2023/06/12 07:29:23;;;;;;;5.13;3.42;;;22.60;72.60;;;;;;4986457;28;20212;-69
2023/06/12 07:31:50;;;;;;;4.38;3.50;;;22.70;72.40;;;;;;4986266;28;20206;-69
2023/06/12 07:34:17;;;;;;;5.22;2.90;;;22.70;71.70;;;;;;4985508;28;21026;-69
2023/06/12 07:36:44;;;;;;;4.85;3.70;;;22.70;71.60;;;;;;4985971;28;20557;-69
2023/06/12 07:39:11;;;;;;;4.93;3.42;;;22.80;71.70;;;;;;4985659;28;20268;-69
2023/06/12 07:41:40;;;;;;;5.20;3.55;;;22.80;71.10;;;;;;4986031;28;20320;-69
2023/06/12 07:44:07;;;;;;;7.32;3.45;;;22.90;70.90;;;;;;4985783;28;20233;-69
2023/06/12 07:46:35;;;;;;;3.35;3.10;;;22.90;69.70;;;;;;4985227;28;20668;-69
2023/06/12 07:49:02;;;;;;;3.25;3.00;;;22.90;69.70;;;;;;4998821;28;20320;-69
2023/06/12 07:51:29;;;;;;;5.68;2.97;;;23.00;70.90;;;;;;5004958;28;20296;-69
2023/06/12 07:53:56;;;;;;;3.55;3.25;;;23.00;69.40;;;;;;5005233;28;20708;-69
2023/06/12 07:56:24;;;;;;;7.13;3.10;;;23.00;69.80;;;;;;4987409;28;20621;-69
2023/06/12 07:58:52;;;;;;;8.32;3.20;;;23.10;69.70;;;;;;4986048;28;20627;-70
2023/06/12 08:01:22;;;;;;;6.20;3.30;;;23.10;70.00;;;;;;4986625;28;20206;-69
2023/06/12 08:03:56;;;;;;;4.85;3.13;;;23.20;69.90;;;;;;4989938;28;20229;-69
2023/06/12 08:06:24;;;;;;;3.47;3.00;;;23.20;69.40;;;;;;4990000;28;20669;-69
2023/06/12 08:08:52;;;;;;;7.13;3.45;;;23.30;68.80;;;;;;4990153;28;20220;-69
2023/06/12 08:11:19;;;;;;;5.10;2.90;;;23.30;68.90;;;;;;4989706;28;20237;-69
2023/06/12 08:13:46;;;;;;;7.70;3.47;;;23.30;69.20;;;;;;4989865;28;20297;-69
2023/06/12 08:16:13;;;;;;;4.95;3.15;;;23.30;68.70;;;;;;4989312;28;20755;-69
2023/06/12 08:18:40;;;;;;;4.20;3.10;;;23.30;68.90;;;;;;4989364;28;20300;-69
2023/06/12 08:21:08;;;;;;;3.67;3.47;;;23.40;67.40;;;;;;4989453;28;20210;-69
2023/06/12 08:23:35;;;;;;;8.48;3.28;;;23.40;67.20;;;;;;4988817;28;21037;-69
2023/06/12 08:26:04;;;;;;;4.65;3.10;;;23.40;66.50;;;;;;5004368;28;20279;-69
2023/06/12 08:28:31;;;;;;;4.82;3.10;;;23.40;63.80;;;;;;5008905;28;20220;-69
2023/06/12 08:30:58;;;;;;;4.32;3.00;;;23.40;64.30;;;;;;4991003;28;20785;-69
2023/06/12 08:33:25;;;;;;;4.25;3.30;;;23.40;64.60;;;;;;4989302;28;20246;-69
2023/06/12 08:35:51;;;;;;;4.10;3.50;;;23.40;62.00;;;;;;4989231;28;20736;-70
2023/06/12 08:38:20;;;;;;;3.88;3.53;;;23.50;63.00;;;;;;4989484;28;20207;-69
2023/06/12 08:40:47;;;;;;;7.55;3.05;;;23.60;62.90;;;;;;4989052;28;20304;-70
2023/06/12 08:43:14;;;;;;;5.55;2.90;;;23.70;63.10;;;;;;4988995;28;20993;-69
2023/06/12 08:45:47;;;;;;;22.10;4.63;;;23.70;63.00;;;;;;4988857;28;20972;-69
2023/06/12 08:48:17;;;;;;;9.48;3.25;;;23.80;62.90;;;;;;4989148;28;20198;-69
2023/06/12 08:50:45;;;;;;;8.18;3.40;;;23.80;63.70;;;;;;4989388;28;20206;-69
2023/06/12 08:53:12;;;;;;;5.88;3.22;;;23.80;63.70;;;;;;4988668;28;20329;-69
2023/06/12 08:55:41;;;;;;;3.63;3.05;;;23.90;64.00;;;;;;4976890;28;20214;-69
2023/06/12 08:58:09;;;;;;;6.68;3.17;;;23.90;64.40;;;;;;4969647;28;20210;-69
2023/06/12 09:00:36;;;;;;;16.33;4.65;;;23.90;64.60;;;;;;4969084;28;20293;-69
2023/06/12 09:03:06;;;;;;;7.20;3.33;;;24.00;65.00;;;;;;4969105;28;20207;-69
2023/06/12 09:05:34;;;;;;;3.30;3.00;;;24.00;65.00;;;;;;4968949;28;20616;-69
2023/06/12 09:08:02;;;;;;;3.72;3.08;;;24.00;65.20;;;;;;4969751;28;20261;-69
2023/06/12 09:10:30;;;;;;;3.63;3.25;;;24.10;65.00;;;;;;4988643;28;20564;-69
2023/06/12 09:12:59;;;;;;;7.80;3.40;;;24.10;63.30;;;;;;4987759;28;20237;-69
2023/06/12 09:15:27;;;;;;;3.42;3.22;;;24.10;63.60;;;;;;4987711;28;20202;-69
2023/06/12 09:17:55;;;;;;;4.95;3.75;;;24.10;63.70;;;;;;4988423;28;20238;-69
2023/06/12 09:20:27;;;;;;;3.55;3.25;;;24.10;63.30;;;;;;4988375;28;20297;-69
2023/06/12 09:22:54;;;;;;;16.75;4.75;;;24.10;63.00;;;;;;4977605;28;20231;-69
2023/06/12 09:25:22;;;;;;;5.18;4.20;;;24.20;63.50;;;;;;4991349;28;20238;-69
2023/06/12 09:27:49;;;;;;;4.65;4.22;;;24.20;63.90;;;;;;4988272;28;20220;-69
2023/06/12 09:30:17;;;;;;;5.53;4.05;;;24.20;63.60;;;;;;4988152;28;20306;-69
2023/06/12 09:32:45;;;;;;;4.13;3.83;;;24.30;64.40;;;;;;4988198;28;20290;-69
2023/06/12 09:35:13;;;;;;;5.00;3.55;;;24.40;66.00;;;;;;4988126;28;20225;-69
2023/06/12 09:37:40;;;;;;;6.15;3.70;;;24.50;63.80;;;;;;4988085;28;20229;-69
2023/06/12 09:40:12;;;;;;;3.90;3.45;;;24.60;63.80;;;;;;4987984;28;20212;-69
2023/06/12 09:42:39;;;;;;;3.92;3.55;;;24.70;65.30;;;;;;4987789;28;20562;-69
2023/06/12 09:45:20;;;;;;;9.82;3.72;;;24.80;64.50;;;;;;4987671;28;20230;-69
2023/06/12 09:47:48;;;;;;;6.57;4.10;;;24.80;63.20;;;;;;4987877;28;20277;-69
2023/06/12 09:50:16;;;;;;;5.93;3.55;;;24.90;63.00;;;;;;4987588;28;20297;-69
2023/06/12 09:52:45;;;;;;;4.05;3.50;;;24.90;62.80;;;;;;4987351;28;20242;-69
2023/06/12 09:55:13;;;;;;;6.72;3.70;;;24.90;64.20;;;;;;4987411;28;20221;-69
2023/06/12 09:57:43;;;;;;;7.18;3.78;;;25.00;65.70;;;;;;4987738;28;21153;-69
2023/06/12 10:00:16;;;;;;;8.23;4.65;;;25.20;65.60;;;;;;4987077;28;20217;-69
2023/06/12 10:02:50;;;;;;;6.20;3.45;;;25.30;64.80;;;;;;4987604;28;20202;-69
2023/06/12 10:05:22;;;;;;;4.13;3.25;;;25.40;65.30;;;;;;4987013;28;20312;-69
2023/06/12 10:07:52;;;;;;;3.80;3.50;;;25.40;64.10;;;;;;4987773;28;20202;-69
2023/06/12 10:10:20;;;;;;;4.25;3.65;;;25.50;65.10;;;;;;4987604;28;20214;-69
2023/06/12 10:12:47;;;;;;;3.38;3.08;;;25.60;64.70;;;;;;4987470;28;20214;-69
2023/06/12 10:15:14;;;;;;;5.25;3.60;;;25.70;63.80;;;;;;4987001;28;20297;-69
2023/06/12 10:17:42;;;;;;;3.85;3.55;;;25.70;63.90;;;;;;4987265;28;20287;-69
2023/06/12 10:20:12;;;;;;;7.00;3.50;;;25.80;64.20;;;;;;4991429;28;20308;-69
2023/06/12 10:22:39;;;;;;;4.00;3.30;;;25.90;65.00;;;;;;4994698;28;20345;-70
2023/06/12 10:25:07;;;;;;;5.22;3.35;;;26.00;64.40;;;;;;4981043;28;20241;-69
2023/06/12 10:27:36;;;;;;;4.10;3.22;;;26.00;63.50;;;;;;5006516;28;20635;-69
2023/06/12 10:30:03;;;;;;;4.03;3.47;;;26.10;63.80;;;;;;5006431;28;20364;-69
2023/06/12 10:32:34;;;;;;;4.40;3.40;;;26.20;62.50;;;;;;5006150;28;20210;-69
2023/06/12 10:35:01;;;;;;;4.22;3.30;;;26.30;62.30;;;;;;5005976;28;20212;-69
2023/06/12 10:37:31;;;;;;;4.13;3.65;;;26.40;63.10;;;;;;4995744;28;20202;-69
2023/06/12 10:40:09;;;;;;;5.45;4.18;;;26.60;63.10;;;;;;4986934;28;20191;-69
2023/06/12 10:42:41;;;;;;;7.68;4.80;;;26.70;63.00;;;;;;4986708;28;20198;-69
2023/06/12 10:45:16;;;;;;;10.98;4.55;;;26.70;63.80;;;;;;4986389;28;20234;-69
2023/06/12 10:47:43;;;;;;;6.80;4.07;;;26.70;64.30;;;;;;4987016;28;20197;-69
2023/06/12 10:50:10;;;;;;;3.95;3.65;;;26.70;65.60;;;;;;4986741;28;20668;-70
2023/06/12 10:52:54;;;;;;;7.05;3.70;;;26.70;65.50;;;;;;4986659;28;20321;-69
2023/06/12 10:55:22;;;;;;;5.38;3.75;;;26.70;65.20;;;;;;4986877;28;20313;-69
2023/06/12 10:57:53;;;;;;;7.28;4.55;;;26.80;64.80;;;;;;4986747;28;20301;-69
2023/06/12 11:00:22;;;;;;;5.05;4.00;;;27.00;65.00;;;;;;4987023;28;20298;-69
2023/06/12 11:02:58;;;;;;;4.53;3.90;;;27.00;65.00;;;;;;4986653;28;20297;-69
2023/06/12 11:05:25;;;;;;;4.63;4.15;;;27.20;66.30;;;;;;4986083;28;20226;-69
2023/06/12 11:07:56;;;;;;;10.02;4.30;;;27.20;67.00;;;;;;4986438;28;20237;-69
2023/06/12 11:10:23;;;;;;;7.15;4.55;;;27.10;66.20;;;;;;4986136;28;20217;-69
2023/06/12 11:12:51;;;;;;;5.32;4.07;;;26.90;67.60;;;;;;4986248;28;20569;-69
2023/06/12 11:15:19;;;;;;;8.07;3.63;;;26.70;67.00;;;;;;4985489;28;20677;-69
2023/06/12 11:17:46;;;;;;;9.18;4.10;;;26.80;67.50;;;;;;4986136;28;20301;-69
2023/06/12 11:20:14;;;;;;;5.18;3.60;;;26.80;66.50;;;;;;4985764;28;20304;-69
2023/06/12 11:22:41;;;;;;;7.15;3.97;;;26.80;66.60;;;;;;4986095;28;20265;-69
2023/06/12 11:25:10;;;;;;;4.00;3.50;;;26.70;67.60;;;;;;4993583;28;20669;-69
2023/06/12 11:27:37;;;;;;;4.35;3.55;;;26.70;67.50;;;;;;5005495;28;20223;-69
2023/06/12 11:30:11;;;;;;;3.67;3.38;;;26.90;66.80;;;;;;5005562;28;20296;-69
2023/06/12 11:32:39;;;;;;;4.00;3.60;;;27.20;67.40;;;;;;5005979;28;20715;-69
2023/06/12 11:35:08;;;;;;;3.78;3.47;;;27.50;66.70;;;;;;5005751;28;20260;-69
2023/06/12 11:37:35;;;;;;;4.80;3.90;;;27.50;66.30;;;;;;5005472;28;20225;-69
2023/06/12 11:40:08;;;;;;;7.68;4.03;;;27.70;66.90;;;;;;5005348;28;20301;-69
2023/06/12 11:42:37;;;;;;;4.18;3.60;;;27.70;65.80;;;;;;5005507;28;20617;-69
2023/06/12 11:45:08;;;;;;;6.75;3.70;;;27.80;65.90;;;;;;5005399;28;20236;-69
2023/06/12 11:47:37;;;;;;;5.63;3.75;;;27.70;64.60;;;;;;5005792;28;20284;-69
2023/06/12 11:50:05;;;;;;;4.95;3.65;;;27.60;65.40;;;;;;5005775;28;20214;-69
2023/06/12 11:52:33;;;;;;;11.38;3.90;;;27.50;65.30;;;;;;5005347;28;20233;-69
2023/06/12 11:55:04;;;;;;;4.93;3.88;;;27.60;65.30;;;;;;4998640;28;20681;-69
2023/06/12 11:57:32;;;;;;;3.97;3.50;;;27.70;65.50;;;;;;4986111;28;20285;-69
2023/06/12 12:00:00;;;;;;;16.05;4.68;;;27.70;65.40;;;;;;4985441;28;20245;-69
2023/06/12 12:02:32;;;;;;;4.05;3.40;;;27.70;65.10;;;;;;4985863;28;20292;-69
2023/06/12 12:05:04;;;;;;;4.40;3.35;;;27.60;64.50;;;;;;4985689;28;20309;-69
2023/06/12 12:07:31;;;;;;;4.57;3.65;;;27.60;64.20;;;;;;4986011;28;20816;-69
2023/06/12 12:10:06;;;;;;;5.53;3.47;;;27.60;64.60;;;;;;4985790;28;20214;-69
2023/06/12 12:12:40;;;;;;;4.10;3.55;;;27.70;64.80;;;;;;4989213;28;20240;-69
2023/06/12 12:15:10;;;;;;;4.28;3.92;;;27.70;64.50;;;;;;4994579;28;20217;-69
2023/06/12 12:17:38;;;;;;;7.13;3.95;;;27.70;64.40;;;;;;4985689;28;20371;-69
2023/06/12 12:20:07;;;;;;;16.40;4.32;;;27.70;64.20;;;;;;4985802;28;20677;-69
2023/06/12 12:22:39;;;;;;;5.82;4.20;;;27.80;64.20;;;;;;4985517;28;20235;-69
2023/06/12 12:25:06;;;;;;;4.38;3.70;;;28.10;65.00;;;;;;4985559;28;20238;-69
2023/06/12 12:27:33;;;;;;;4.53;4.13;;;28.40;63.90;;;;;;4985811;28;20210;-69
2023/06/12 12:30:00;;;;;;;5.55;3.95;;;28.70;62.60;;;;;;4985625;28;20214;-69
2023/06/12 12:32:28;;;;;;;7.03;3.55;;;28.80;62.20;;;;;;4985335;28;20245;-69
2023/06/12 12:34:57;;;;;;;4.32;3.90;;;28.70;60.60;;;;;;4985543;28;20242;-69
2023/06/12 12:37:23;;;;;;;4.90;4.00;;;28.60;61.10;;;;;;4985054;28;20214;-69
2023/06/12 12:39:50;;;;;;;3.88;3.58;;;28.50;60.70;;;;;;4985173;28;20210;-69
2023/06/12 12:42:18;;;;;;;11.30;4.28;;;28.70;61.80;;;;;;4985353;28;20273;-69
2023/06/12 12:44:45;;;;;;;3.97;3.65;;;28.90;61.90;;;;;;4985141;28;20261;-69
2023/06/12 12:47:12;;;;;;;7.88;3.95;;;29.20;60.40;;;;;;4985405;28;20572;-69
2023/06/12 12:49:40;;;;;;;4.43;4.03;;;29.40;60.30;;;;;;4988462;28;20217;-69
2023/06/12 12:52:07;;;;;;;4.30;3.88;;;29.30;59.80;;;;;;4988932;28;20271;-70